Abis Bremen — PCJO — position and weather

sailwx.info

Track history (hours):
 
Tides and Currents Weather Stations Pressure Air Temp Water Temp Dewpoint Dewpoint Depression Visibility Wind Speed Wind Dir Waves Ship Positions

Abis Bremen

Last reported at 2017-May-25 09:48 UTC. Time now 2017-May-25 10:33 UTC.
Position N 48°28' W 005°48'.

Length 90 m; draft 5.2 m.

Type: Ship. MMSI: 246778880.

Date/timePositionNaut miles runAvg speedWind from/ knotsBaromVisibWave heightAir tempDewpointWater temp
2017-May-25 09:48N 48°28' W 005°48'3 9.9
2017-May-25 09:27N 48°31' W 005°51'6 9.5
2017-May-25 08:47N 48°36' W 005°55'1810.1
2017-May-25 06:57N 48°54' W 005°45'510.0
2017-May-25 06:26N 48°57' W 005°39'5 9.6
2017-May-25 05:58N 48°59' W 005°33'6 9.3
2017-May-25 05:18N 49°02' W 005°25'4 8.8
2017-May-25 04:53N 49°04' W 005°20'4 8.4
2017-May-25 04:22N 49°07' W 005°15'5 8.1
2017-May-25 03:47N 49°09' W 005°08'2 8.1
2017-May-25 03:30N 49°10' W 005°06'4 8.2
2017-May-25 03:00N 49°12' W 004°60'4 8.3
2017-May-25 02:30N 49°14' W 004°55'4 8.5
2017-May-25 02:00N 49°16' W 004°49'5 9.0
2017-May-25 01:30N 49°19' W 004°43'6 9.6
2017-May-25 00:53N 49°22' W 004°35'410.2
2017-May-25 00:30N 49°24' W 004°30'610.6
2017-May-24 23:57N 49°27' W 004°22'511.1
2017-May-24 23:30N 49°29' W 004°15'611.5
2017-May-24 23:00N 49°32' W 004°08'711.6
2017-May-24 22:27N 49°35' W 003°59'911.6
2017-May-24 21:42N 49°39' W 003°48'211.4
2017-May-24 21:30N 49°40' W 003°45'611.0
2017-May-24 21:00N 49°43' W 003°37'510.4
2017-May-24 20:30N 49°46' W 003°31'5 9.8
2017-May-24 20:00N 49°49' W 003°24'4 8.8
2017-May-24 19:30N 49°50' W 003°18'4 8.6
2017-May-24 19:00N 49°53' W 003°12'4 8.2
2017-May-24 18:30N 49°55' W 003°07'4 7.7
2017-May-24 18:00N 49°57' W 003°01'4 7.2
2017-May-24 17:30N 49°58' W 002°56'4 7.0
2017-May-24 16:59N 49°59' W 002°51'5 7.3
2017-May-24 16:20N 50°01' W 002°44'3 7.8
2017-May-24 15:58N 50°02' W 002°40'5 8.7
2017-May-24 15:24N 50°03' W 002°33'511.0
2017-May-24 14:55N 50°05' W 002°24'511.9
2017-May-24 14:27N 50°06' W 002°16'1213.3
2017-May-24 13:30N 50°08' W 001°57'714.2
2017-May-24 13:00N 50°11' W 001°46'814.0
2017-May-24 12:24N 50°14' W 001°34'1014.2
2017-May-24 11:42N 50°16' W 001°19'513.7
2017-May-24 11:21N 50°17' W 001°12'613.0
2017-May-24 10:56N 50°19' W 001°04'2310.6
2017-May-24 08:45N 50°26' W 000°29'2 9.3
2017-May-24 08:30N 50°27' W 000°26'5 9.0
2017-May-24 08:00N 50°28' W 000°19'4 8.8
2017-May-24 07:30N 50°29' W 000°12'4 8.6
2017-May-24 07:00N 50°31' W 000°06'5 9.1
2017-May-24 06:30N 50°32' E 000°01'5 9.1
2017-May-24 06:00N 50°33' E 000°08'4 8.5
2017-May-24 05:30N 50°34' E 000°14'5 9.1
2017-May-24 05:00N 50°36' E 000°21'510.0
2017-May-24 04:30N 50°37' E 000°29'510.8
2017-May-24 03:59N 50°40' E 000°37'611.3
2017-May-24 03:28N 50°43' E 000°44'811.1
2017-May-24 02:44N 50°48' E 000°55'310.9
2017-May-24 02:25N 50°50' E 000°59'410.6
2017-May-24 02:00N 50°52' E 001°05'510.2
2017-May-24 01:30N 50°56' E 001°11'5 9.5
2017-May-24 01:00N 50°59' E 001°17'4 8.7
2017-May-24 00:30N 51°01' E 001°22'4 7.9
2017-May-24 00:00N 51°04' E 001°27'4 7.3
2017-May-23 23:30N 51°06' E 001°31'3 6.6
2017-May-23 23:00N 51°09' E 001°35'3 6.6
2017-May-23 22:30N 51°11' E 001°39'3 6.9
2017-May-23 22:00N 51°13' E 001°43'4 7.6
2017-May-23 21:30N 51°16' E 001°47'4 8.7
2017-May-23 21:01N 51°20' E 001°51'5 9.5
2017-May-23 20:30N 51°24' E 001°54'510.5
2017-May-23 20:00N 51°28' E 001°60'611.1
2017-May-23 19:29N 51°32' E 002°06'611.3
2017-May-23 18:56N 51°37' E 002°13'5010.7
2017-May-23 14:16N 52°15' E 003°04'7 9.2
2017-May-23 13:30N 52°21' E 003°11'4 9.0
2017-May-23 13:00N 52°24' E 003°15'4 8.1
2017-May-23 12:30N 52°28' E 003°19'4 8.4
2017-May-23 12:00N 52°31' E 003°23'4 8.6
2017-May-23 11:30N 52°34' E 003°28'4 9.0
2017-May-23 11:00N 52°38' E 003°32'5 9.1
2017-May-23 10:30N 52°42' E 003°36'5 9.8
2017-May-23 10:00N 52°45' E 003°42'510.4
2017-May-23 09:30N 52°49' E 003°48'610.6
2017-May-23 08:57N 52°54' E 003°54'610.5
2017-May-23 08:24N 52°58' E 004°01'410.5
2017-May-23 08:00N 53°01' E 004°06'510.6
2017-May-23 07:30N 53°04' E 004°12'710.5
2017-May-23 06:53N 53°08' E 004°20'24 9.3
2017-May-23 04:20N 53°29' E 004°41'5 8.3
2017-May-23 03:47N 53°30' E 004°48'2 8.5
2017-May-23 03:30N 53°31' E 004°52'7 8.6
2017-May-23 02:44N 53°34' E 005°03'2 8.7
2017-May-23 02:30N 53°34' E 005°06'4 9.0
2017-May-23 02:00N 53°36' E 005°13'5 9.4
2017-May-23 01:30N 53°37' E 005°20'5 9.9
2017-May-23 01:00N 53°39' E 005°28'610.6
2017-May-23 00:29N 53°41' E 005°37'4210.3
2017-May-22 20:25N 53°31' E 006°46'410.2
2017-May-22 20:00N 53°28' E 006°50'5 9.7
2017-May-22 19:30N 53°25' E 006°56'5 9.3
2017-May-22 19:00N 53°21' E 006°59'4 7.8
2017-May-22 18:30N 53°20' E 007°06'4 0.2
2017-May-22 01:16N 53°20' E 007°12'0 0.0
2017-May-22 00:52N 53°20' E 007°12'0 0.0
2017-May-22 00:28N 53°20' E 007°12'0 0.0
2017-May-21 23:22N 53°20' E 007°12'0 0.0
2017-May-21 22:10N 53°20' E 007°12'0 0.0
2017-May-21 21:58N 53°20' E 007°12'0 0.0
2017-May-21 21:28N 53°20' E 007°12'0 0.0
2017-May-21 14:40N 53°20' E 007°12'0 0.0
2017-May-21 14:12N 53°20' E 007°12'0 0.0
2017-May-21 13:29N 53°20' E 007°12'0 0.0
2017-May-21 12:59N 53°20' E 007°12'0 0.0
2017-May-21 12:29N 53°20' E 007°12'0 0.0
2017-May-21 11:57N 53°20' E 007°12'0 0.0
2017-May-21 11:29N 53°20' E 007°12'0 0.0
2017-May-21 10:57N 53°20' E 007°12'0 0.9
2017-May-21 10:30N 53°20' E 007°11'0 0.4
2017-May-21 10:00N 53°20' E 007°11'3 5.1
2017-May-21 09:30N 53°20' E 007°07'4 7.8
2017-May-21 09:00N 53°20' E 007°00'4 7.6
2017-May-21 08:30N 53°23' E 006°58'39 4.1
2017-May-20 23:12N 53°59' E 007°21'12 8.9
2017-May-20 21:48N 54°02' E 007°42'3 9.0
2017-May-20 21:30N 54°02' E 007°47'5 9.5
2017-May-20 20:59N 54°02' E 007°55'5 9.3
2017-May-20 20:25N 54°01' E 008°04'4 9.4
2017-May-20 20:00N 54°01' E 008°10'711.2
2017-May-20 19:22N 53°59' E 008°23'511.0
2017-May-20 18:56N 53°58' E 008°30'4 9.7
2017-May-20 18:29N 53°57' E 008°38'4 8.4
2017-May-20 18:00N 53°54' E 008°42'4 7.6
2017-May-20 17:31N 53°51' E 008°46'4 7.4
2017-May-20 17:01N 53°50' E 008°52'4 7.5
2017-May-20 16:30N 53°51' E 008°58'4 8.3
2017-May-20 16:00N 53°52' E 009°05'4 8.5
2017-May-20 15:30N 53°53' E 009°12'5 9.5
2017-May-20 15:01N 53°51' E 009°19'1111.3
2017-May-20 14:00N 53°42' E 009°30'611.5
2017-May-20 13:30N 53°36' E 009°35'611.7
2017-May-20 13:00N 53°34' E 009°43'611.7
2017-May-20 12:30N 53°33' E 009°53'4 8.3
2017-May-20 12:00N 53°29' E 009°57'1 2.1
2017-May-20 11:30N 53°28' E 009°58'0 0.0
2017-May-20 11:00N 53°28' E 009°58'0 0.0
2017-May-20 10:30N 53°28' E 009°58'0 0.0
2017-May-20 10:00N 53°28' E 009°58'0 0.0
2017-May-20 09:30N 53°28' E 009°58'0 0.0
2017-May-20 09:00N 53°28' E 009°58'0 0.0
2017-May-20 08:30N 53°28' E 009°58'0 0.0
2017-May-20 08:00N 53°28' E 009°58'0 0.0
2017-May-20 07:27N 53°28' E 009°58'0 0.0
2017-May-20 07:00N 53°28' E 009°58'0 0.0
2017-May-20 06:30N 53°28' E 009°58'0 0.0
2017-May-20 06:00N 53°28' E 009°58'0 0.0
2017-May-20 05:30N 53°28' E 009°58'0 0.0
2017-May-20 05:01N 53°28' E 009°58'0 0.0
2017-May-20 04:31N 53°28' E 009°58'0 0.0
2017-May-20 04:00N 53°28' E 009°58'0 0.0
2017-May-20 03:30N 53°28' E 009°58'0 0.0
2017-May-20 03:01N 53°28' E 009°58'0 0.0
2017-May-20 02:30N 53°28' E 009°58'0 0.0
2017-May-20 02:01N 53°28' E 009°58'0 0.0
2017-May-20 01:31N 53°28' E 009°58'0 0.0
2017-May-20 01:01N 53°28' E 009°58'0 0.0
2017-May-20 00:30N 53°28' E 009°58'0 0.0
2017-May-20 00:00N 53°28' E 009°58'0 0.0
2017-May-19 23:30N 53°28' E 009°58'0 0.0
2017-May-19 23:00N 53°28' E 009°58'0 0.0
2017-May-19 22:31N 53°28' E 009°58'0 0.0
2017-May-19 22:00N 53°28' E 009°58'0 0.0
2017-May-19 21:31N 53°28' E 009°58'0 0.0
2017-May-19 21:00N 53°28' E 009°58'0 0.0
2017-May-19 20:31N 53°28' E 009°58'0 0.0
2017-May-19 20:01N 53°28' E 009°58'0 0.0
2017-May-19 19:31N 53°28' E 009°58'0 0.0
2017-May-19 19:00N 53°28' E 009°58'0 0.0
2017-May-19 18:30N 53°28' E 009°58'0 0.0
2017-May-19 18:00N 53°28' E 009°58'0 0.0
2017-May-19 17:30N 53°28' E 009°58'0 0.0
2017-May-19 17:00N 53°28' E 009°58'0 0.0
2017-May-19 16:30N 53°28' E 009°58'0 0.0
2017-May-19 16:01N 53°28' E 009°58'0 0.0
2017-May-19 15:30N 53°28' E 009°58'0 0.0
2017-May-19 15:01N 53°28' E 009°58'0 0.0
2017-May-19 14:30N 53°28' E 009°58'0 0.0
2017-May-19 13:30N 53°28' E 009°58'0 0.0
2017-May-19 13:00N 53°28' E 009°58'0 0.0
2017-May-19 12:30N 53°28' E 009°58'0 0.0
2017-May-19 12:00N 53°28' E 009°58'0 0.0
2017-May-19 11:30N 53°28' E 009°58'0 0.0
2017-May-19 11:00N 53°28' E 009°58'0 0.0
2017-May-19 10:30N 53°28' E 009°58'0 0.0
2017-May-19 10:00N 53°28' E 009°58'0 0.0
2017-May-19 09:31N 53°28' E 009°58'0 0.0
2017-May-19 09:00N 53°28' E 009°58'0 0.0
2017-May-19 08:31N 53°28' E 009°58'2 3.3
2017-May-19 08:00N 53°30' E 009°57'1 1.9
2017-May-19 07:31N 53°31' E 009°56'2 3.8
2017-May-19 07:00N 53°30' E 009°59'0 0.4
2017-May-19 06:30N 53°29' E 009°59'0 0.0
2017-May-19 06:00N 53°29' E 009°59'0 0.0
2017-May-19 05:31N 53°29' E 009°59'0 0.0
2017-May-19 05:00N 53°29' E 009°59'0 0.0
2017-May-19 04:30N 53°29' E 009°59'0 0.0
2017-May-19 04:00N 53°29' E 009°59'0 0.0
2017-May-19 03:30N 53°29' E 009°59'0 0.0
2017-May-19 03:00N 53°29' E 009°59'0 0.0
2017-May-19 02:30N 53°29' E 009°59'0 0.0
2017-May-19 02:00N 53°29' E 009°59'0 0.0
2017-May-19 01:30N 53°29' E 009°59'0 0.0
2017-May-19 01:00N 53°29' E 009°59'0 0.0
2017-May-19 00:31N 53°29' E 009°59'0 0.0
2017-May-19 00:01N 53°29' E 009°59'0 0.0
2017-May-18 23:30N 53°29' E 009°59'0 0.0
2017-May-18 23:00N 53°29' E 009°59'0 0.0
2017-May-18 22:30N 53°29' E 009°59'0 0.0
2017-May-18 22:00N 53°29' E 009°59'0 0.0
2017-May-18 21:30N 53°29' E 009°59'0 0.0
2017-May-18 21:00N 53°29' E 009°59'0 0.0
2017-May-18 20:30N 53°29' E 009°59'0 0.0
2017-May-18 20:00N 53°29' E 009°59'0 0.0
2017-May-18 19:30N 53°29' E 009°59'0 0.0
2017-May-18 19:01N 53°29' E 009°59'0 0.0
2017-May-18 18:31N 53°29' E 009°59'0 0.0
2017-May-18 18:00N 53°29' E 009°59'0 0.0
2017-May-18 17:30N 53°29' E 009°59'0 0.0
2017-May-18 17:00N 53°29' E 009°59'1 2.0
2017-May-18 16:30N 53°30' E 009°58'3 6.3
2017-May-18 16:00N 53°32' E 009°55'612.0
2017-May-18 15:31N 53°34' E 009°45'713.4
2017-May-18 15:00N 53°36' E 009°34'1313.3
2017-May-18 14:01N 53°48' E 009°23'713.0
2017-May-18 13:31N 53°52' E 009°15'611.6
2017-May-18 13:00N 53°52' E 009°05'611.6
2017-May-18 12:30N 53°51' E 008°56'610.9
2017-May-18 12:00N 53°51' E 008°46'510.4
2017-May-18 11:30N 53°55' E 008°41'286 9.6
2017-May-17 05:48N 58°17' E 005°17'3 9.6
2017-May-17 05:30N 58°20' E 005°15'610.0
2017-May-17 04:55N 58°26' E 005°15'410.3
2017-May-17 04:30N 58°30' E 005°16'510.6
2017-May-17 04:00N 58°35' E 005°17'510.9
2017-May-17 03:30N 58°41' E 005°16'510.3
2017-May-17 03:00N 58°46' E 005°16'510.0
2017-May-17 02:30N 58°51' E 005°16'5 9.9
2017-May-17 02:00N 58°56' E 005°16'5 9.3
2017-May-17 01:30N 59°00' E 005°18'5 9.2
2017-May-17 01:00N 59°05' E 005°19'3 6.3
2017-May-17 00:30N 59°07' E 005°24'4 8.0
2017-May-17 00:00N 59°09' E 005°30'611.2
2017-May-16 23:30N 59°13' E 005°37'612.5
2017-May-16 23:00N 59°17' E 005°46'612.7
2017-May-16 22:30N 59°21' E 005°57'611.7
2017-May-16 21:59N 59°24' E 006°06'611.9
2017-May-16 21:30N 59°29' E 006°14'612.4
2017-May-16 21:00N 59°34' E 006°19'5 9.1
2017-May-16 20:30N 59°39' E 006°22'0 0.0
2017-May-16 20:00N 59°39' E 006°22'0 0.0
2017-May-16 19:30N 59°39' E 006°22'0 0.0
2017-May-16 19:00N 59°39' E 006°22'0 0.0
2017-May-16 18:30N 59°39' E 006°22'0 0.0
2017-May-16 18:00N 59°39' E 006°22'0 0.0
2017-May-16 17:30N 59°39' E 006°22'0 0.0
2017-May-16 17:00N 59°39' E 006°22'0 0.0
2017-May-16 16:30N 59°39' E 006°22'0 0.0
2017-May-16 15:59N 59°39' E 006°22'0 0.0
2017-May-16 15:30N 59°39' E 006°22'0 0.0
2017-May-16 15:00N 59°39' E 006°22'0 0.0
2017-May-16 14:00N 59°39' E 006°22'0 0.0
2017-May-16 13:30N 59°39' E 006°22'0 0.0
2017-May-16 12:59N 59°39' E 006°22'0 0.0
2017-May-16 12:29N 59°39' E 006°22'0 0.0
2017-May-16 12:00N 59°39' E 006°22'0 0.0
2017-May-16 11:30N 59°39' E 006°22'0 0.2
2017-May-16 11:00N 59°39' E 006°22'4 8.6
2017-May-16 10:30N 59°34' E 006°19'612.1
2017-May-16 10:00N 59°29' E 006°14'611.2
2017-May-16 09:30N 59°24' E 006°07'510.5
2017-May-16 08:59N 59°21' E 005°60'611.9
2017-May-16 08:30N 59°19' E 005°49'612.2
2017-May-16 08:00N 59°14' E 005°41'612.1
2017-May-16 07:30N 59°10' E 005°33'510.2
2017-May-16 07:00N 59°07' E 005°25'4 8.1
2017-May-16 06:30N 59°07' E 005°17'510.0
2017-May-16 06:00N 59°06' E 005°07'4 8.4
2017-May-16 05:30N 59°08' E 004°59'4 7.0
2017-May-16 05:00N 59°10' E 004°54'3 6.2
2017-May-16 04:30N 59°12' E 004°50'3 6.4
2017-May-16 04:00N 59°15' E 004°48'13 6.4
2017-May-16 02:00N 59°28' E 004°43'4 8.8
2017-May-16 01:30N 59°32' E 004°44'5 9.4
2017-May-16 00:59N 59°37' E 004°45'5 9.6
2017-May-16 00:30N 59°41' E 004°46'5 9.8
2017-May-16 00:00N 59°46' E 004°47'5 9.9
2017-May-15 23:30N 59°51' E 004°49'510.1
2017-May-15 23:00N 59°56' E 004°49'510.4
2017-May-15 22:30N 60°01' E 004°51'510.8
2017-May-15 22:00N 60°06' E 004°55'510.6
2017-May-15 21:30N 60°09' E 005°04'5 9.0
2017-May-15 21:00N 60°13' E 005°10'511.1
2017-May-15 20:30N 60°18' E 005°12'510.3
2017-May-15 20:00N 60°23' E 005°11'510.5
2017-May-15 19:30N 60°28' E 005°15'4 7.7
2017-May-15 19:00N 60°32' E 005°18'0 0.0
2017-May-15 18:30N 60°32' E 005°18'0 0.0
2017-May-15 18:00N 60°32' E 005°18'0 0.0
2017-May-15 17:30N 60°32' E 005°18'0 0.0
2017-May-15 16:59N 60°32' E 005°18'0 0.0
2017-May-15 16:30N 60°32' E 005°18'0 0.0
2017-May-15 16:00N 60°32' E 005°18'0 0.0
2017-May-15 15:30N 60°32' E 005°18'0 0.0
2017-May-15 15:00N 60°32' E 005°18'0 0.0
2017-May-15 14:00N 60°32' E 005°18'0 0.0
2017-May-15 13:30N 60°32' E 005°18'0 0.0
2017-May-15 12:59N 60°32' E 005°18'0 0.0
2017-May-15 12:30N 60°32' E 005°18'0 0.0
2017-May-15 12:00N 60°32' E 005°18'0 0.0
2017-May-15 11:30N 60°32' E 005°18'0 0.0
2017-May-15 11:00N 60°32' E 005°18'0 0.0
2017-May-15 10:30N 60°32' E 005°18'0 0.0
2017-May-15 10:00N 60°32' E 005°18'  
Track history (hours):
 
Tides and Currents Weather Stations Pressure Air Temp Water Temp Dewpoint Dewpoint Depression Visibility Wind Speed Wind Dir Waves Ship Positions

Abis Bremen

Last reported at 2017-May-25 09:48 UTC. Time now 2017-May-25 10:33 UTC.
Position N 48°28' W 005°48'.

Length 90 m; draft 5.2 m.

Type: Ship. MMSI: 246778880.

Date/timePositionNaut miles runAvg speedWind from/ knotsBaromVisibWave heightAir tempDewpointWater temp
2017-May-25 09:48N 48°28' W 005°48'3 9.9
2017-May-25 09:27N 48°31' W 005°51'6 9.5
2017-May-25 08:47N 48°36' W 005°55'1810.1
2017-May-25 06:57N 48°54' W 005°45'510.0
2017-May-25 06:26N 48°57' W 005°39'5 9.6
2017-May-25 05:58N 48°59' W 005°33'6 9.3
2017-May-25 05:18N 49°02' W 005°25'4 8.8
2017-May-25 04:53N 49°04' W 005°20'4 8.4
2017-May-25 04:22N 49°07' W 005°15'5 8.1
2017-May-25 03:47N 49°09' W 005°08'2 8.1
2017-May-25 03:30N 49°10' W 005°06'4 8.2
2017-May-25 03:00N 49°12' W 004°60'4 8.3
2017-May-25 02:30N 49°14' W 004°55'4 8.5
2017-May-25 02:00N 49°16' W 004°49'5 9.0
2017-May-25 01:30N 49°19' W 004°43'6 9.6
2017-May-25 00:53N 49°22' W 004°35'410.2
2017-May-25 00:30N 49°24' W 004°30'610.6
2017-May-24 23:57N 49°27' W 004°22'511.1
2017-May-24 23:30N 49°29' W 004°15'611.5
2017-May-24 23:00N 49°32' W 004°08'711.6
2017-May-24 22:27N 49°35' W 003°59'911.6
2017-May-24 21:42N 49°39' W 003°48'211.4
2017-May-24 21:30N 49°40' W 003°45'611.0
2017-May-24 21:00N 49°43' W 003°37'510.4
2017-May-24 20:30N 49°46' W 003°31'5 9.8
2017-May-24 20:00N 49°49' W 003°24'4 8.8
2017-May-24 19:30N 49°50' W 003°18'4 8.6
2017-May-24 19:00N 49°53' W 003°12'4 8.2
2017-May-24 18:30N 49°55' W 003°07'4 7.7
2017-May-24 18:00N 49°57' W 003°01'4 7.2
2017-May-24 17:30N 49°58' W 002°56'4 7.0
2017-May-24 16:59N 49°59' W 002°51'5 7.3
2017-May-24 16:20N 50°01' W 002°44'3 7.8
2017-May-24 15:58N 50°02' W 002°40'5 8.7
2017-May-24 15:24N 50°03' W 002°33'511.0
2017-May-24 14:55N 50°05' W 002°24'511.9
2017-May-24 14:27N 50°06' W 002°16'1213.3
2017-May-24 13:30N 50°08' W 001°57'714.2
2017-May-24 13:00N 50°11' W 001°46'814.0
2017-May-24 12:24N 50°14' W 001°34'1014.2
2017-May-24 11:42N 50°16' W 001°19'513.7
2017-May-24 11:21N 50°17' W 001°12'613.0
2017-May-24 10:56N 50°19' W 001°04'2310.6
2017-May-24 08:45N 50°26' W 000°29'2 9.3
2017-May-24 08:30N 50°27' W 000°26'5 9.0
2017-May-24 08:00N 50°28' W 000°19'4 8.8
2017-May-24 07:30N 50°29' W 000°12'4 8.6
2017-May-24 07:00N 50°31' W 000°06'5 9.1
2017-May-24 06:30N 50°32' E 000°01'5 9.1
2017-May-24 06:00N 50°33' E 000°08'4 8.5
2017-May-24 05:30N 50°34' E 000°14'5 9.1
2017-May-24 05:00N 50°36' E 000°21'510.0
2017-May-24 04:30N 50°37' E 000°29'510.8
2017-May-24 03:59N 50°40' E 000°37'611.3
2017-May-24 03:28N 50°43' E 000°44'811.1
2017-May-24 02:44N 50°48' E 000°55'310.9
2017-May-24 02:25N 50°50' E 000°59'410.6
2017-May-24 02:00N 50°52' E 001°05'510.2
2017-May-24 01:30N 50°56' E 001°11'5 9.5
2017-May-24 01:00N 50°59' E 001°17'4 8.7
2017-May-24 00:30N 51°01' E 001°22'4 7.9
2017-May-24 00:00N 51°04' E 001°27'4 7.3
2017-May-23 23:30N 51°06' E 001°31'3 6.6
2017-May-23 23:00N 51°09' E 001°35'3 6.6
2017-May-23 22:30N 51°11' E 001°39'3 6.9
2017-May-23 22:00N 51°13' E 001°43'4 7.6
2017-May-23 21:30N 51°16' E 001°47'4 8.7
2017-May-23 21:01N 51°20' E 001°51'5 9.5
2017-May-23 20:30N 51°24' E 001°54'510.5
2017-May-23 20:00N 51°28' E 001°60'611.1
2017-May-23 19:29N 51°32' E 002°06'611.3
2017-May-23 18:56N 51°37' E 002°13'5010.7
2017-May-23 14:16N 52°15' E 003°04'7 9.2
2017-May-23 13:30N 52°21' E 003°11'4 9.0
2017-May-23 13:00N 52°24' E 003°15'4 8.1
2017-May-23 12:30N 52°28' E 003°19'4 8.4
2017-May-23 12:00N 52°31' E 003°23'4 8.6
2017-May-23 11:30N 52°34' E 003°28'4 9.0
2017-May-23 11:00N 52°38' E 003°32'5 9.1
2017-May-23 10:30N 52°42' E 003°36'5 9.8
2017-May-23 10:00N 52°45' E 003°42'510.4
2017-May-23 09:30N 52°49' E 003°48'610.6
2017-May-23 08:57N 52°54' E 003°54'610.5
2017-May-23 08:24N 52°58' E 004°01'410.5
2017-May-23 08:00N 53°01' E 004°06'510.6
2017-May-23 07:30N 53°04' E 004°12'710.5
2017-May-23 06:53N 53°08' E 004°20'24 9.3
2017-May-23 04:20N 53°29' E 004°41'5 8.3
2017-May-23 03:47N 53°30' E 004°48'2 8.5
2017-May-23 03:30N 53°31' E 004°52'7 8.6
2017-May-23 02:44N 53°34' E 005°03'2 8.7
2017-May-23 02:30N 53°34' E 005°06'4 9.0
2017-May-23 02:00N 53°36' E 005°13'5 9.4
2017-May-23 01:30N 53°37' E 005°20'5 9.9
2017-May-23 01:00N 53°39' E 005°28'610.6
2017-May-23 00:29N 53°41' E 005°37'4210.3
2017-May-22 20:25N 53°31' E 006°46'410.2
2017-May-22 20:00N 53°28' E 006°50'5 9.7
2017-May-22 19:30N 53°25' E 006°56'5 9.3
2017-May-22 19:00N 53°21' E 006°59'4 7.8
2017-May-22 18:30N 53°20' E 007°06'4 0.2
2017-May-22 01:16N 53°20' E 007°12'0 0.0
2017-May-22 00:52N 53°20' E 007°12'0 0.0
2017-May-22 00:28N 53°20' E 007°12'0 0.0
2017-May-21 23:22N 53°20' E 007°12'0 0.0
2017-May-21 22:10N 53°20' E 007°12'0 0.0
2017-May-21 21:58N 53°20' E 007°12'0 0.0
2017-May-21 21:28N 53°20' E 007°12'0 0.0
2017-May-21 14:40N 53°20' E 007°12'0 0.0
2017-May-21 14:12N 53°20' E 007°12'0 0.0
2017-May-21 13:29N 53°20' E 007°12'0 0.0
2017-May-21 12:59N 53°20' E 007°12'0 0.0
2017-May-21 12:29N 53°20' E 007°12'0 0.0
2017-May-21 11:57N 53°20' E 007°12'0 0.0
2017-May-21 11:29N 53°20' E 007°12'0 0.0
2017-May-21 10:57N 53°20' E 007°12'0 0.9
2017-May-21 10:30N 53°20' E 007°11'0 0.4
2017-May-21 10:00N 53°20' E 007°11'3 5.1
2017-May-21 09:30N 53°20' E 007°07'4 7.8
2017-May-21 09:00N 53°20' E 007°00'4 7.6
2017-May-21 08:30N 53°23' E 006°58'39 4.1
2017-May-20 23:12N 53°59' E 007°21'12 8.9
2017-May-20 21:48N 54°02' E 007°42'3 9.0
2017-May-20 21:30N 54°02' E 007°47'5 9.5
2017-May-20 20:59N 54°02' E 007°55'5 9.3
2017-May-20 20:25N 54°01' E 008°04'4 9.4
2017-May-20 20:00N 54°01' E 008°10'711.2
2017-May-20 19:22N 53°59' E 008°23'511.0
2017-May-20 18:56N 53°58' E 008°30'4 9.7
2017-May-20 18:29N 53°57' E 008°38'4 8.4
2017-May-20 18:00N 53°54' E 008°42'4 7.6
2017-May-20 17:31N 53°51' E 008°46'4 7.4
2017-May-20 17:01N 53°50' E 008°52'4 7.5
2017-May-20 16:30N 53°51' E 008°58'4 8.3
2017-May-20 16:00N 53°52' E 009°05'4 8.5
2017-May-20 15:30N 53°53' E 009°12'5 9.5
2017-May-20 15:01N 53°51' E 009°19'1111.3
2017-May-20 14:00N 53°42' E 009°30'611.5
2017-May-20 13:30N 53°36' E 009°35'611.7
2017-May-20 13:00N 53°34' E 009°43'611.7
2017-May-20 12:30N 53°33' E 009°53'4 8.3
2017-May-20 12:00N 53°29' E 009°57'1 2.1
2017-May-20 11:30N 53°28' E 009°58'0 0.0
2017-May-20 11:00N 53°28' E 009°58'0 0.0
2017-May-20 10:30N 53°28' E 009°58'0 0.0
2017-May-20 10:00N 53°28' E 009°58'0 0.0
2017-May-20 09:30N 53°28' E 009°58'0 0.0
2017-May-20 09:00N 53°28' E 009°58'0 0.0
2017-May-20 08:30N 53°28' E 009°58'0 0.0
2017-May-20 08:00N 53°28' E 009°58'0 0.0
2017-May-20 07:27N 53°28' E 009°58'0 0.0
2017-May-20 07:00N 53°28' E 009°58'0 0.0
2017-May-20 06:30N 53°28' E 009°58'0 0.0
2017-May-20 06:00N 53°28' E 009°58'0 0.0
2017-May-20 05:30N 53°28' E 009°58'0 0.0
2017-May-20 05:01N 53°28' E 009°58'0 0.0
2017-May-20 04:31N 53°28' E 009°58'0 0.0
2017-May-20 04:00N 53°28' E 009°58'0 0.0
2017-May-20 03:30N 53°28' E 009°58'0 0.0
2017-May-20 03:01N 53°28' E 009°58'0 0.0
2017-May-20 02:30N 53°28' E 009°58'0 0.0
2017-May-20 02:01N 53°28' E 009°58'0 0.0
2017-May-20 01:31N 53°28' E 009°58'0 0.0
2017-May-20 01:01N 53°28' E 009°58'0 0.0
2017-May-20 00:30N 53°28' E 009°58'0 0.0
2017-May-20 00:00N 53°28' E 009°58'0 0.0
2017-May-19 23:30N 53°28' E 009°58'0 0.0
2017-May-19 23:00N 53°28' E 009°58'0 0.0
2017-May-19 22:31N 53°28' E 009°58'0 0.0
2017-May-19 22:00N 53°28' E 009°58'0 0.0
2017-May-19 21:31N 53°28' E 009°58'0 0.0
2017-May-19 21:00N 53°28' E 009°58'0 0.0
2017-May-19 20:31N 53°28' E 009°58'0 0.0
2017-May-19 20:01N 53°28' E 009°58'0 0.0
2017-May-19 19:31N 53°28' E 009°58'0 0.0
2017-May-19 19:00N 53°28' E 009°58'0 0.0
2017-May-19 18:30N 53°28' E 009°58'0 0.0
2017-May-19 18:00N 53°28' E 009°58'0 0.0
2017-May-19 17:30N 53°28' E 009°58'0 0.0
2017-May-19 17:00N 53°28' E 009°58'0 0.0
2017-May-19 16:30N 53°28' E 009°58'0 0.0
2017-May-19 16:01N 53°28' E 009°58'0 0.0
2017-May-19 15:30N 53°28' E 009°58'0 0.0
2017-May-19 15:01N 53°28' E 009°58'0 0.0
2017-May-19 14:30N 53°28' E 009°58'0 0.0
2017-May-19 13:30N 53°28' E 009°58'0 0.0
2017-May-19 13:00N 53°28' E 009°58'0 0.0
2017-May-19 12:30N 53°28' E 009°58'0 0.0
2017-May-19 12:00N 53°28' E 009°58'0 0.0
2017-May-19 11:30N 53°28' E 009°58'0 0.0
2017-May-19 11:00N 53°28' E 009°58'0 0.0
2017-May-19 10:30N 53°28' E 009°58'0 0.0
2017-May-19 10:00N 53°28' E 009°58'0 0.0
2017-May-19 09:31N 53°28' E 009°58'0 0.0
2017-May-19 09:00N 53°28' E 009°58'0 0.0
2017-May-19 08:31N 53°28' E 009°58'2 3.3
2017-May-19 08:00N 53°30' E 009°57'1 1.9
2017-May-19 07:31N 53°31' E 009°56'2 3.8
2017-May-19 07:00N 53°30' E 009°59'0 0.4
2017-May-19 06:30N 53°29' E 009°59'0 0.0
2017-May-19 06:00N 53°29' E 009°59'0 0.0
2017-May-19 05:31N 53°29' E 009°59'0 0.0
2017-May-19 05:00N 53°29' E 009°59'0 0.0
2017-May-19 04:30N 53°29' E 009°59'0 0.0
2017-May-19 04:00N 53°29' E 009°59'0 0.0
2017-May-19 03:30N 53°29' E 009°59'0 0.0
2017-May-19 03:00N 53°29' E 009°59'0 0.0
2017-May-19 02:30N 53°29' E 009°59'0 0.0
2017-May-19 02:00N 53°29' E 009°59'0 0.0
2017-May-19 01:30N 53°29' E 009°59'0 0.0
2017-May-19 01:00N 53°29' E 009°59'0 0.0
2017-May-19 00:31N 53°29' E 009°59'0 0.0
2017-May-19 00:01N 53°29' E 009°59'0 0.0
2017-May-18 23:30N 53°29' E 009°59'0 0.0
2017-May-18 23:00N 53°29' E 009°59'0 0.0
2017-May-18 22:30N 53°29' E 009°59'0 0.0
2017-May-18 22:00N 53°29' E 009°59'0 0.0
2017-May-18 21:30N 53°29' E 009°59'0 0.0
2017-May-18 21:00N 53°29' E 009°59'0 0.0
2017-May-18 20:30N 53°29' E 009°59'0 0.0
2017-May-18 20:00N 53°29' E 009°59'0 0.0
2017-May-18 19:30N 53°29' E 009°59'0 0.0
2017-May-18 19:01N 53°29' E 009°59'0 0.0
2017-May-18 18:31N 53°29' E 009°59'0 0.0
2017-May-18 18:00N 53°29' E 009°59'0 0.0
2017-May-18 17:30N 53°29' E 009°59'0 0.0
2017-May-18 17:00N 53°29' E 009°59'1 2.0
2017-May-18 16:30N 53°30' E 009°58'3 6.3
2017-May-18 16:00N 53°32' E 009°55'612.0
2017-May-18 15:31N 53°34' E 009°45'713.4
2017-May-18 15:00N 53°36' E 009°34'1313.3
2017-May-18 14:01N 53°48' E 009°23'713.0
2017-May-18 13:31N 53°52' E 009°15'611.6
2017-May-18 13:00N 53°52' E 009°05'611.6
2017-May-18 12:30N 53°51' E 008°56'610.9
2017-May-18 12:00N 53°51' E 008°46'510.4
2017-May-18 11:30N 53°55' E 008°41'286 9.6
2017-May-17 05:48N 58°17' E 005°17'3 9.6
2017-May-17 05:30N 58°20' E 005°15'610.0
2017-May-17 04:55N 58°26' E 005°15'410.3
2017-May-17 04:30N 58°30' E 005°16'510.6
2017-May-17 04:00N 58°35' E 005°17'510.9
2017-May-17 03:30N 58°41' E 005°16'510.3
2017-May-17 03:00N 58°46' E 005°16'510.0
2017-May-17 02:30N 58°51' E 005°16'5 9.9
2017-May-17 02:00N 58°56' E 005°16'5 9.3
2017-May-17 01:30N 59°00' E 005°18'5 9.2
2017-May-17 01:00N 59°05' E 005°19'3 6.3
2017-May-17 00:30N 59°07' E 005°24'4 8.0
2017-May-17 00:00N 59°09' E 005°30'611.2
2017-May-16 23:30N 59°13' E 005°37'612.5
2017-May-16 23:00N 59°17' E 005°46'612.7
2017-May-16 22:30N 59°21' E 005°57'611.7
2017-May-16 21:59N 59°24' E 006°06'611.9
2017-May-16 21:30N 59°29' E 006°14'612.4
2017-May-16 21:00N 59°34' E 006°19'5 9.1
2017-May-16 20:30N 59°39' E 006°22'0 0.0
2017-May-16 20:00N 59°39' E 006°22'0 0.0
2017-May-16 19:30N 59°39' E 006°22'0 0.0
2017-May-16 19:00N 59°39' E 006°22'0 0.0
2017-May-16 18:30N 59°39' E 006°22'0 0.0
2017-May-16 18:00N 59°39' E 006°22'0 0.0
2017-May-16 17:30N 59°39' E 006°22'0 0.0
2017-May-16 17:00N 59°39' E 006°22'0 0.0
2017-May-16 16:30N 59°39' E 006°22'0 0.0
2017-May-16 15:59N 59°39' E 006°22'0 0.0
2017-May-16 15:30N 59°39' E 006°22'0 0.0
2017-May-16 15:00N 59°39' E 006°22'0 0.0
2017-May-16 14:00N 59°39' E 006°22'0 0.0
2017-May-16 13:30N 59°39' E 006°22'0 0.0
2017-May-16 12:59N 59°39' E 006°22'0 0.0
2017-May-16 12:29N 59°39' E 006°22'0 0.0
2017-May-16 12:00N 59°39' E 006°22'0 0.0
2017-May-16 11:30N 59°39' E 006°22'0 0.2
2017-May-16 11:00N 59°39' E 006°22'4 8.6
2017-May-16 10:30N 59°34' E 006°19'612.1
2017-May-16 10:00N 59°29' E 006°14'611.2
2017-May-16 09:30N 59°24' E 006°07'510.5
2017-May-16 08:59N 59°21' E 005°60'611.9
2017-May-16 08:30N 59°19' E 005°49'612.2
2017-May-16 08:00N 59°14' E 005°41'612.1
2017-May-16 07:30N 59°10' E 005°33'510.2
2017-May-16 07:00N 59°07' E 005°25'4 8.1
2017-May-16 06:30N 59°07' E 005°17'510.0
2017-May-16 06:00N 59°06' E 005°07'4 8.4
2017-May-16 05:30N 59°08' E 004°59'4 7.0
2017-May-16 05:00N 59°10' E 004°54'3 6.2
2017-May-16 04:30N 59°12' E 004°50'3 6.4
2017-May-16 04:00N 59°15' E 004°48'13 6.4
2017-May-16 02:00N 59°28' E 004°43'4 8.8
2017-May-16 01:30N 59°32' E 004°44'5 9.4
2017-May-16 00:59N 59°37' E 004°45'5 9.6
2017-May-16 00:30N 59°41' E 004°46'5 9.8
2017-May-16 00:00N 59°46' E 004°47'5 9.9
2017-May-15 23:30N 59°51' E 004°49'510.1
2017-May-15 23:00N 59°56' E 004°49'510.4
2017-May-15 22:30N 60°01' E 004°51'510.8
2017-May-15 22:00N 60°06' E 004°55'510.6
2017-May-15 21:30N 60°09' E 005°04'5 9.0
2017-May-15 21:00N 60°13' E 005°10'511.1
2017-May-15 20:30N 60°18' E 005°12'510.3
2017-May-15 20:00N 60°23' E 005°11'510.5
2017-May-15 19:30N 60°28' E 005°15'4 7.7
2017-May-15 19:00N 60°32' E 005°18'0 0.0
2017-May-15 18:30N 60°32' E 005°18'0 0.0
2017-May-15 18:00N 60°32' E 005°18'0 0.0
2017-May-15 17:30N 60°32' E 005°18'0 0.0
2017-May-15 16:59N 60°32' E 005°18'0 0.0
2017-May-15 16:30N 60°32' E 005°18'0 0.0
2017-May-15 16:00N 60°32' E 005°18'0 0.0
2017-May-15 15:30N 60°32' E 005°18'0 0.0
2017-May-15 15:00N 60°32' E 005°18'0 0.0
2017-May-15 14:00N 60°32' E 005°18'0 0.0
2017-May-15 13:30N 60°32' E 005°18'0 0.0
2017-May-15 12:59N 60°32' E 005°18'0 0.0
2017-May-15 12:30N 60°32' E 005°18'0 0.0
2017-May-15 12:00N 60°32' E 005°18'0 0.0
2017-May-15 11:30N 60°32' E 005°18'0 0.0
2017-May-15 11:00N 60°32' E 005°18'0 0.0
2017-May-15 10:30N 60°32' E 005°18'0 0.0
2017-May-15 10:00N 60°32' E 005°18'  

Dump ship's entire track history